Warroad, MN

11:48 CDT le 30 juillet 2016 (GMT -0500)
Warroad International-Carlson | | Change Station

Alt. 1073 ft 48.94 °N, 95.35 °W | Updated 27 minutes ago

Scattered Clouds
Nuages épars
75 ° F
Paraît 75 ° F
N
6
Vent Variable Vent de Sud

Aujourd'hui
Haut(e) -- | Bas -- ° F
--% Risque de précip.
Hier
Haut(e) -- | Bas -- ° F
Precip. -- pouce
Pression 29.98 pouce
Visibilité 10.0 Miles terrestres
Nuages Nuages épars 2800 ft
Point de rosée 66 ° F
Humidité 73%
Précipitations 0.00 pouce
Profondeur de la couche neigeuse Non disponible.
5:52 AM 9:01 PM
Lune descendante, 12% visible
METAR KRRT 301621Z AUTO 19005KT 10SM SCT028 24/19 A2998 RMK AO2
Pression 29.98 pouce
Visibilité 10.0 Miles terrestres
Nuages Nuages épars 2800 ft
Point de rosée 66 ° F
Humidité 73%
Précipitations 0.00 pouce
Profondeur de la couche neigeuse Non disponible.
5:52 AM 9:01 PM
Lune descendante, 12% visible
METAR KRRT 301621Z AUTO 19005KT 10SM SCT028 24/19 A2998 RMK AO2

10-Day Weather Forecast

Almanac

Astronomie

Jul. 30, 2016 Lever Coucher
Temps réel
Crépuscule civil
Crépuscule nautique
Crépuscule astronomique
Lune
Durée de lumière visible
Longueur du jour
Tomorrow will be .
, % of the Moon is Illuminated

Extrêmes aujourd'hui

State Highs State Lows

Community

WunderPhotos

Upload Photos

1,928,597 Photos téléchargées !

WunderBlog® & News

Nearby

Qualité de l'air

  Qualité de l'air Indice de la qualité de l'air Polluant
Not available.

Épaisseur de neige

Station Depth Altitude

Activité sismique

Ville Distance Mag. Time & Date
Minimum magnitude displayed is 2.5.

Températures des eaux côtières

Lieu Température

Stations

Stations météo à proximité

Emplacement de la station Température Refroidissement éolien Point de rosée Humidité Vent Precip. Alt. Mise à jour Type
                   

Watches & Warnings

There are currently no watches in effect.